createdAt,value
2018-01-19T00:01:44.433Z,64.50
2018-01-19T00:04:18.487Z,64.90
2018-01-19T00:06:52.602Z,64.90
2018-01-19T00:09:26.714Z,65.10
2018-01-19T00:12:00.519Z,65.10
2018-01-19T00:14:34.630Z,65.00
2018-01-19T00:17:08.433Z,65.00
2018-01-19T00:19:42.237Z,65.30
2018-01-19T00:22:16.414Z,65.10
2018-01-19T00:24:50.478Z,65.30
2018-01-19T00:27:24.265Z,65.40
2018-01-19T00:29:59.061Z,65.70
2018-01-19T00:32:32.970Z,65.70
2018-01-19T00:35:06.922Z,65.60
2018-01-19T00:37:40.728Z,65.70
2018-01-19T00:40:14.838Z,65.80
2018-01-19T00:42:48.647Z,65.80
2018-01-19T00:45:22.675Z,65.60
2018-01-19T00:47:56.666Z,66.00
2018-01-19T00:50:30.674Z,66.10
2018-01-19T00:53:04.890Z,66.00
2018-01-19T00:55:38.694Z,66.00
2018-01-19T00:58:12.497Z,66.40
2018-01-19T01:00:46.368Z,66.40
2018-01-19T01:03:20.175Z,66.40
2018-01-19T01:05:54.122Z,66.40
2018-01-19T01:08:28.042Z,66.50
2018-01-19T01:11:01.762Z,66.30
2018-01-19T01:13:36.421Z,66.10
2018-01-19T01:16:10.374Z,66.10
2018-01-19T01:18:44.544Z,66.40
2018-01-19T01:21:18.398Z,66.50
2018-01-19T01:23:52.505Z,66.70
2018-01-19T01:26:26.780Z,66.80
2018-01-19T01:29:00.792Z,66.90
2018-01-19T01:31:34.802Z,66.80
2018-01-19T01:34:08.754Z,66.40
2018-01-19T01:36:42.561Z,66.40
2018-01-19T01:39:16.674Z,66.10
2018-01-19T01:41:50.434Z,65.80
2018-01-19T01:44:24.661Z,65.50
2018-01-19T01:46:58.473Z,65.60
2018-01-19T01:49:32.411Z,65.00
2018-01-19T01:52:06.409Z,65.20
2018-01-19T01:54:40.386Z,65.30
2018-01-19T01:57:14.193Z,65.30
2018-01-19T01:59:48.886Z,65.30
2018-01-19T02:02:22.930Z,65.30
2018-01-19T02:04:56.880Z,65.20
2018-01-19T02:07:30.678Z,65.20
2018-01-19T02:10:05.472Z,65.10
2018-01-19T02:12:39.418Z,65.10
2018-01-19T02:15:13.392Z,65.50
2018-01-19T02:17:47.402Z,65.30
2018-01-19T02:20:21.354Z,65.70
2018-01-19T02:22:55.321Z,65.70
2018-01-19T02:25:29.274Z,65.70
2018-01-19T02:28:03.274Z,65.80
2018-01-19T02:30:37.864Z,65.80
2018-01-19T02:33:11.714Z,65.70
2018-01-19T02:35:45.783Z,65.80
2018-01-19T02:38:19.635Z,65.90
2018-01-19T02:40:53.537Z,65.40
2018-01-19T02:43:28.326Z,65.50
2018-01-19T02:46:02.066Z,65.50
2018-01-19T02:48:35.997Z,65.30
2018-01-19T02:51:10.153Z,65.20
2018-01-19T02:53:44.210Z,65.30
2018-01-19T02:56:18.834Z,65.30
2018-01-19T02:58:52.741Z,65.20
2018-01-19T03:01:27.457Z,65.40
2018-01-19T03:04:01.270Z,65.40
2018-01-19T03:06:35.285Z,65.30
2018-01-19T03:09:09.456Z,65.30
2018-01-19T03:11:43.302Z,65.30
2018-01-19T03:14:17.363Z,64.90
2018-01-19T03:16:51.489Z,64.90
2018-01-19T03:19:25.443Z,64.80
2018-01-19T03:21:59.509Z,64.90
2018-01-19T03:24:33.562Z,64.30
2018-01-19T03:27:07.370Z,64.40
2018-01-19T03:29:41.481Z,64.30
2018-01-19T03:32:16.166Z,64.20
2018-01-19T03:34:50.118Z,64.10
2018-01-19T03:37:24.126Z,64.30
2018-01-19T03:39:58.095Z,64.50
2018-01-19T03:42:32.107Z,64.30
2018-01-19T03:45:05.730Z,64.70
2018-01-19T03:47:39.717Z,65.00
2018-01-19T03:50:14.386Z,64.60
2018-01-19T03:52:48.660Z,64.60
2018-01-19T03:55:22.613Z,64.70
2018-01-19T03:57:56.829Z,65.00
2018-01-19T04:00:31.511Z,65.10
2018-01-19T04:03:05.690Z,65.10
2018-01-19T04:05:39.678Z,64.70
2018-01-19T04:08:13.354Z,65.30
2018-01-19T04:10:47.285Z,65.20
2018-01-19T04:13:21.153Z,65.10
2018-01-19T04:15:55.106Z,65.40
2018-01-19T04:18:29.221Z,65.10
2018-01-19T04:21:03.230Z,65.10
2018-01-19T04:23:37.033Z,64.70
2018-01-19T04:26:11.002Z,64.20
2018-01-19T04:28:45.627Z,64.60
2018-01-19T04:31:20.289Z,64.80
2018-01-19T04:33:54.364Z,64.80
2018-01-19T04:36:28.479Z,64.60
2018-01-19T04:39:02.326Z,64.30
2018-01-19T04:41:36.438Z,63.90
2018-01-19T04:44:10.241Z,63.30
2018-01-19T04:46:44.154Z,63.40
2018-01-19T04:49:18.162Z,63.50
2018-01-19T04:51:52.894Z,63.10
2018-01-19T04:54:27.473Z,63.10
2018-01-19T04:57:01.526Z,63.10
2018-01-19T04:59:35.325Z,63.70
2018-01-19T05:02:09.133Z,62.80
2018-01-19T05:04:43.153Z,61.80
2018-01-19T05:07:17.424Z,62.30
2018-01-19T05:09:51.678Z,62.50
2018-01-19T05:12:25.558Z,62.60
2018-01-19T05:14:59.558Z,62.40
2018-01-19T05:17:33.772Z,62.90
2018-01-19T05:20:08.401Z,63.50
2018-01-19T05:22:42.549Z,63.50
2018-01-19T05:25:17.073Z,63.80
2018-01-19T05:27:51.190Z,63.80
2018-01-19T05:30:25.976Z,62.90
2018-01-19T05:32:59.987Z,62.90
2018-01-19T05:35:33.997Z,62.70
2018-01-19T05:38:07.731Z,63.20
2018-01-19T05:40:42.574Z,62.40
2018-01-19T05:43:16.746Z,62.40
2018-01-19T05:45:50.557Z,63.10
2018-01-19T05:48:24.460Z,62.70
2018-01-19T05:50:58.471Z,62.90
2018-01-19T05:53:32.480Z,63.60
2018-01-19T05:56:06.218Z,63.80
2018-01-19T05:58:40.242Z,63.30
2018-01-19T06:01:14.137Z,63.00
2018-01-19T06:03:48.873Z,63.40
2018-01-19T06:06:22.878Z,63.40
2018-01-19T06:08:57.002Z,63.50
2018-01-19T06:11:31.727Z,64.30
2018-01-19T06:14:05.725Z,63.90
2018-01-19T06:16:39.745Z,63.90
2018-01-19T06:19:13.604Z,63.10
2018-01-19T06:21:47.463Z,63.50
2018-01-19T06:24:21.362Z,63.40
2018-01-19T06:26:55.481Z,64.10
2018-01-19T06:29:29.593Z,64.00
2018-01-19T06:32:03.868Z,63.70
2018-01-19T06:34:37.834Z,63.90
2018-01-19T06:37:11.526Z,63.70
2018-01-19T06:39:46.309Z,63.60
2018-01-19T06:42:20.218Z,63.60
2018-01-19T06:44:54.162Z,62.80
2018-01-19T06:47:28.905Z,63.00
2018-01-19T06:50:03.595Z,62.40
2018-01-19T06:52:37.634Z,62.30
2018-01-19T06:55:11.643Z,62.70
2018-01-19T06:57:45.402Z,62.40
2018-01-19T07:00:20.078Z,62.50
2018-01-19T07:02:53.885Z,61.90
2018-01-19T07:05:27.994Z,62.10
2018-01-19T07:08:02.167Z,62.00
2018-01-19T07:10:36.033Z,62.20
2018-01-19T07:13:10.751Z,62.20
2018-01-19T07:15:44.863Z,62.10
2018-01-19T07:18:18.970Z,62.70
2018-01-19T07:20:53.187Z,63.00
2018-01-19T07:23:27.298Z,62.90
2018-01-19T07:26:02.210Z,62.60
2018-01-19T07:28:36.299Z,62.60
2018-01-19T07:31:10.046Z,62.20
2018-01-19T07:33:43.954Z,62.70
2018-01-19T07:36:17.921Z,62.20
2018-01-19T07:38:51.973Z,61.90
2018-01-19T07:41:25.941Z,62.00
2018-01-19T07:44:00.157Z,62.40
2018-01-19T07:46:34.271Z,62.20
2018-01-19T07:49:08.281Z,62.60
2018-01-19T07:51:43.058Z,62.70
2018-01-19T07:54:17.166Z,62.60
2018-01-19T07:56:51.594Z,63.10
2018-01-19T07:59:27.138Z,63.20
2018-01-19T08:02:01.303Z,63.20
2018-01-19T08:04:34.978Z,63.00
2018-01-19T08:07:08.962Z,63.10
2018-01-19T08:09:42.970Z,63.20
2018-01-19T08:12:16.874Z,63.30
2018-01-19T08:14:51.607Z,63.20
2018-01-19T08:17:25.401Z,63.20
2018-01-19T08:19:59.522Z,62.30
2018-01-19T08:22:34.251Z,62.00
2018-01-19T08:25:08.058Z,62.00
2018-01-19T08:27:41.862Z,62.00
2018-01-19T08:30:15.774Z,62.30
2018-01-19T08:32:49.781Z,62.80
2018-01-19T08:35:24.510Z,62.00
2018-01-19T08:37:58.926Z,62.90
2018-01-19T08:40:32.948Z,62.80
2018-01-19T08:43:07.765Z,63.20
2018-01-19T08:45:41.838Z,63.10
2018-01-19T08:48:15.748Z,63.20
2018-01-19T08:50:49.802Z,63.40
2018-01-19T08:53:23.750Z,63.60
2018-01-19T08:55:57.676Z,63.70
2018-01-19T08:58:32.354Z,64.30
2018-01-19T09:01:06.254Z,64.30
2018-01-19T09:03:40.366Z,64.10
2018-01-19T09:06:14.332Z,64.20
2018-01-19T09:08:48.286Z,64.70
2018-01-19T09:11:22.189Z,64.80
2018-01-19T09:13:56.193Z,64.60
2018-01-19T09:16:30.218Z,64.50
2018-01-19T09:19:04.024Z,64.60
2018-01-19T09:21:38.136Z,64.30
2018-01-19T09:24:12.142Z,64.20
2018-01-19T09:26:46.266Z,64.30
2018-01-19T09:29:19.942Z,64.70
2018-01-19T09:31:54.745Z,64.60
2018-01-19T09:34:28.698Z,64.60
2018-01-19T09:37:02.869Z,64.80
2018-01-19T09:39:36.709Z,65.00
2018-01-19T09:42:10.626Z,65.00
2018-01-19T09:44:45.165Z,64.60
2018-01-19T09:47:19.262Z,64.50
2018-01-19T09:49:53.228Z,64.00
2018-01-19T09:52:27.898Z,63.80
2018-01-19T09:55:01.910Z,63.70
2018-01-19T09:57:36.022Z,64.20
2018-01-19T10:00:10.650Z,62.80
2018-01-19T10:02:44.762Z,62.80
2018-01-19T10:05:19.238Z,64.30
2018-01-19T10:07:53.190Z,64.30
2018-01-19T10:10:27.305Z,63.90
2018-01-19T10:13:01.209Z,64.20
2018-01-19T10:15:35.429Z,63.20
2018-01-19T10:18:09.334Z,63.30
2018-01-19T10:20:43.129Z,63.40
2018-01-19T10:23:17.824Z,62.90
2018-01-19T10:25:51.770Z,62.90
2018-01-19T10:28:25.684Z,63.80
2018-01-19T10:30:59.694Z,63.20
2018-01-19T10:33:33.602Z,62.60
2018-01-19T10:36:08.389Z,62.80
2018-01-19T10:38:42.194Z,62.80
2018-01-19T10:41:16.205Z,63.20
2018-01-19T10:43:50.977Z,62.30
2018-01-19T10:46:25.148Z,62.10
2018-01-19T10:48:59.094Z,62.30
2018-01-19T10:51:33.168Z,61.80
2018-01-19T10:54:07.022Z,61.30
2018-01-19T10:56:41.810Z,60.70
2018-01-19T10:59:16.429Z,60.50
2018-01-19T11:01:50.274Z,60.40
2018-01-19T11:04:25.007Z,60.90
2018-01-19T11:06:59.122Z,60.90
2018-01-19T11:09:33.338Z,60.30
2018-01-19T11:12:07.234Z,60.10
2018-01-19T11:14:41.145Z,59.30
2018-01-19T11:17:15.322Z,59.50
2018-01-19T11:19:49.993Z,58.70
2018-01-19T11:22:24.014Z,58.60
2018-01-19T11:24:57.797Z,58.80
2018-01-19T11:27:31.710Z,58.60
2018-01-19T11:30:05.785Z,58.40
2018-01-19T11:32:39.795Z,58.60
2018-01-19T11:35:13.850Z,59.40
2018-01-19T11:37:48.432Z,57.40
2018-01-19T11:40:22.338Z,57.20
2018-01-19T11:42:56.082Z,57.60
2018-01-19T11:45:30.193Z,57.60
2018-01-19T11:48:04.269Z,57.70
2018-01-19T11:50:38.893Z,58.40
2018-01-19T11:53:12.805Z,58.40
2018-01-19T11:55:46.858Z,58.80
2018-01-19T11:58:21.131Z,58.40
2018-01-19T12:00:55.085Z,58.50
2018-01-19T12:03:28.885Z,59.20
2018-01-19T12:06:02.798Z,58.90
2018-01-19T12:08:36.910Z,58.00
2018-01-19T12:11:10.923Z,58.30
2018-01-19T12:13:44.784Z,58.40
2018-01-19T12:16:18.646Z,58.40
2018-01-19T12:18:52.634Z,58.00
2018-01-19T12:21:27.328Z,58.10
2018-01-19T12:24:01.894Z,57.80
2018-01-19T12:26:36.065Z,57.80
2018-01-19T12:29:10.622Z,57.20
2018-01-19T12:31:44.598Z,57.20
2018-01-19T12:34:18.485Z,58.10
2018-01-19T12:36:53.173Z,57.70
2018-01-19T12:39:27.074Z,57.70
2018-01-19T12:42:01.198Z,57.40
2018-01-19T12:44:35.828Z,56.80
2018-01-19T12:47:09.729Z,56.80
2018-01-19T12:49:43.517Z,57.20
2018-01-19T12:52:17.502Z,57.30
2018-01-19T12:54:51.378Z,56.50
2018-01-19T12:57:25.362Z,56.10
2018-01-19T12:59:59.192Z,55.40
2018-01-19T13:02:33.278Z,56.80
2018-01-19T13:05:07.390Z,56.00
2018-01-19T13:07:41.306Z,56.20
2018-01-19T13:10:15.114Z,56.20
2018-01-19T13:12:49.279Z,55.40
2018-01-19T13:15:23.334Z,55.80
2018-01-19T13:17:57.403Z,54.90
2018-01-19T13:20:32.035Z,54.80
2018-01-19T13:23:06.038Z,54.70
2018-01-19T13:25:39.989Z,54.70
2018-01-19T13:28:14.571Z,53.90
2018-01-19T13:30:48.787Z,53.90
2018-01-19T13:33:22.630Z,53.90
2018-01-19T13:35:56.761Z,53.80
2018-01-19T13:38:30.971Z,53.50
2018-01-19T13:41:05.077Z,54.30
2018-01-19T13:43:39.086Z,54.20
2018-01-19T13:46:13.098Z,54.00
2018-01-19T13:48:47.167Z,53.00
2018-01-19T13:51:20.906Z,53.70
2018-01-19T13:53:55.642Z,53.00
2018-01-19T13:56:30.266Z,52.80
2018-01-19T13:59:04.174Z,52.70
2018-01-19T14:01:38.859Z,52.10
2018-01-19T14:04:13.738Z,51.90
2018-01-19T14:06:47.642Z,51.90
2018-01-19T14:09:21.650Z,52.20
2018-01-19T14:11:55.454Z,52.20
2018-01-19T14:14:29.254Z,52.60
2018-01-19T14:17:03.074Z,52.60
2018-01-19T14:19:37.182Z,52.70
2018-01-19T14:22:11.910Z,52.00
2018-01-19T14:24:45.810Z,51.80
2018-01-19T14:27:20.433Z,52.00
2018-01-19T14:29:54.511Z,52.00
2018-01-19T14:32:28.458Z,51.90
2018-01-19T14:35:02.327Z,51.40
2018-01-19T14:37:37.098Z,51.90
2018-01-19T14:40:10.898Z,51.80
2018-01-19T14:42:45.588Z,51.90
2018-01-19T14:45:19.917Z,51.90
2018-01-19T14:47:53.950Z,52.90
2018-01-19T14:50:27.758Z,52.20
2018-01-19T14:53:01.674Z,52.50
2018-01-19T14:55:36.459Z,52.10
2018-01-19T14:58:10.402Z,51.90
2018-01-19T15:00:44.318Z,52.40
2018-01-19T15:03:18.122Z,51.60
2018-01-19T15:05:52.062Z,51.60
2018-01-19T15:08:26.570Z,52.30
2018-01-19T15:11:00.523Z,52.30
2018-01-19T15:13:34.474Z,52.50
2018-01-19T15:16:08.550Z,52.00
2018-01-19T15:18:42.287Z,52.10
2018-01-19T15:21:17.306Z,51.20
2018-01-19T15:23:51.395Z,51.20
2018-01-19T15:26:25.554Z,51.40
2018-01-19T15:28:59.354Z,51.60
2018-01-19T15:31:33.986Z,52.00
2018-01-19T15:34:07.782Z,51.90
2018-01-19T15:36:41.754Z,52.50
2018-01-19T15:39:15.765Z,52.80
2018-01-19T15:41:49.717Z,53.20
2018-01-19T15:44:23.722Z,52.80
2018-01-19T15:46:57.634Z,52.30
2018-01-19T15:49:31.438Z,52.30
2018-01-19T15:52:05.616Z,52.70
2018-01-19T15:54:39.521Z,53.40
2018-01-19T15:57:13.574Z,54.00
2018-01-19T15:59:47.702Z,54.10
2018-01-19T16:02:21.656Z,54.30
2018-01-19T16:04:56.492Z,54.40
2018-01-19T16:07:31.154Z,54.70
2018-01-19T16:10:05.062Z,54.50
2018-01-19T16:12:38.986Z,54.40
2018-01-19T16:15:12.872Z,54.70
2018-01-19T16:17:46.948Z,54.80
2018-01-19T16:20:20.690Z,55.00
2018-01-19T16:22:54.706Z,55.30
2018-01-19T16:25:28.877Z,55.60
2018-01-19T16:28:03.503Z,55.60
2018-01-19T16:30:38.182Z,55.10
2018-01-19T16:33:12.240Z,55.10
2018-01-19T16:35:46.251Z,55.80
2018-01-19T16:38:20.261Z,55.80
2018-01-19T16:40:54.214Z,55.50
2018-01-19T16:43:28.020Z,55.80
2018-01-19T16:46:02.293Z,56.20
2018-01-19T16:48:36.241Z,56.10
2018-01-19T16:51:10.154Z,56.20
2018-01-19T16:53:43.802Z,56.00
2018-01-19T16:56:17.769Z,55.80
2018-01-19T16:58:51.865Z,55.90
2018-01-19T17:01:25.947Z,55.90
2018-01-19T17:04:00.005Z,55.90
2018-01-19T17:06:33.909Z,56.00
2018-01-19T17:09:07.714Z,56.20
2018-01-19T17:11:41.830Z,56.20
2018-01-19T17:14:15.795Z,56.10
2018-01-19T17:16:50.010Z,56.70
2018-01-19T17:19:23.962Z,56.10
2018-01-19T17:21:57.928Z,56.80
2018-01-19T17:24:31.837Z,56.60
2018-01-19T17:27:05.746Z,56.60
2018-01-19T17:29:39.418Z,56.50
2018-01-19T17:32:14.197Z,56.70
2018-01-19T17:34:48.187Z,56.70
2018-01-19T17:37:22.242Z,56.90
2018-01-19T17:39:56.241Z,56.40
2018-01-19T17:42:30.362Z,56.60
2018-01-19T17:45:04.366Z,56.60
2018-01-19T17:47:38.649Z,56.30
2018-01-19T17:50:12.557Z,56.40
2018-01-19T17:52:47.222Z,56.70
2018-01-19T17:55:21.442Z,56.70
2018-01-19T17:57:55.450Z,56.60
2018-01-19T18:00:29.568Z,56.50
2018-01-19T18:03:04.093Z,56.50
2018-01-19T18:05:38.156Z,56.50
2018-01-19T18:08:12.782Z,56.80
2018-01-19T18:10:46.438Z,56.80
2018-01-19T18:13:20.438Z,56.90
2018-01-19T18:15:54.123Z,56.60
2018-01-19T18:18:28.312Z,56.70
2018-01-19T18:21:02.220Z,56.90
2018-01-19T18:23:36.602Z,56.80
2018-01-19T18:26:10.378Z,56.70
2018-01-19T18:28:44.460Z,56.70
2018-01-19T18:31:18.303Z,56.90
2018-01-19T18:33:53.297Z,56.80
2018-01-19T18:36:27.250Z,56.80
2018-01-19T18:39:01.362Z,56.80
2018-01-19T18:41:35.276Z,56.80
2018-01-19T18:44:09.173Z,56.80
2018-01-19T18:46:43.861Z,56.80
2018-01-19T18:49:17.977Z,56.80
2018-01-19T18:51:52.087Z,56.60
2018-01-19T18:54:25.983Z,56.70
2018-01-19T18:57:00.730Z,56.90
2018-01-19T18:59:35.394Z,56.80
2018-01-19T19:02:10.894Z,56.80
2018-01-19T19:04:45.833Z,57.00
2018-01-19T19:07:19.922Z,57.00
2018-01-19T19:09:54.771Z,57.00
2018-01-19T19:12:28.630Z,57.00
2018-01-19T19:15:02.286Z,56.80
2018-01-19T19:17:36.354Z,56.90
2018-01-19T19:20:10.426Z,57.10
2018-01-19T19:25:43.230Z,57.20
2018-01-19T19:28:17.290Z,57.00
2018-01-19T19:30:51.826Z,56.90
2018-01-19T19:33:26.481Z,57.00
2018-01-19T19:36:00.226Z,57.00
2018-01-19T19:38:33.913Z,57.20
2018-01-19T19:41:07.841Z,57.30
2018-01-19T19:43:41.933Z,57.40
2018-01-19T19:46:15.834Z,57.30
2018-01-19T19:48:49.809Z,57.30
2018-01-19T19:51:23.617Z,57.00
2018-01-19T19:53:57.625Z,57.10
2018-01-19T19:56:31.721Z,57.30
2018-01-19T19:59:06.426Z,57.10
2018-01-19T20:01:40.406Z,57.10
2018-01-19T20:04:14.176Z,57.10
2018-01-19T20:06:48.026Z,57.10
2018-01-19T20:09:21.793Z,57.10
2018-01-19T20:11:55.952Z,57.40
2018-01-19T20:14:30.122Z,57.20
2018-01-19T20:17:03.957Z,57.20
2018-01-19T20:19:37.886Z,57.30
2018-01-19T20:22:11.943Z,57.30
2018-01-19T20:24:45.802Z,57.40
2018-01-19T20:27:19.866Z,57.40
2018-01-19T20:29:54.602Z,57.50
2018-01-19T20:32:28.550Z,57.50
2018-01-19T20:35:03.536Z,57.50
2018-01-19T20:37:37.194Z,57.50
2018-01-19T20:40:11.461Z,57.60
2018-01-19T20:42:45.469Z,57.20
2018-01-19T20:45:19.650Z,57.40
2018-01-19T20:47:54.454Z,57.40
2018-01-19T20:50:28.429Z,57.40
2018-01-19T20:53:02.341Z,57.50
2018-01-19T20:55:36.357Z,57.40
2018-01-19T20:58:10.233Z,57.40
2018-01-19T21:00:44.330Z,57.50
2018-01-19T21:03:19.285Z,57.70
2018-01-19T21:05:54.034Z,57.60
2018-01-19T21:08:27.998Z,57.60
2018-01-19T21:11:02.209Z,57.60
2018-01-19T21:13:36.352Z,57.60
2018-01-19T21:16:10.367Z,57.80
2018-01-19T21:18:45.205Z,58.10
2018-01-19T21:21:20.193Z,58.50
2018-01-19T21:23:54.154Z,58.20
2018-01-19T21:26:28.218Z,58.10
2018-01-19T21:29:03.190Z,58.20
2018-01-19T21:31:36.926Z,58.20
2018-01-19T21:34:10.781Z,58.20
2018-01-19T21:36:44.913Z,58.00
2018-01-19T21:39:18.806Z,58.10
2018-01-19T21:41:52.746Z,58.10
2018-01-19T21:44:26.550Z,58.10
2018-01-19T21:47:00.630Z,58.30
2018-01-19T21:49:35.213Z,58.00
2018-01-19T21:52:09.110Z,57.90
2018-01-19T21:54:42.985Z,57.90
2018-01-19T21:57:17.818Z,57.80
2018-01-19T21:59:51.906Z,57.80
2018-01-19T22:02:25.902Z,57.70
2018-01-19T22:04:59.726Z,57.90
2018-01-19T22:07:33.980Z,58.10
2018-01-19T22:10:07.763Z,58.00
2018-01-19T22:12:42.490Z,58.20
2018-01-19T22:15:17.246Z,58.40
2018-01-19T22:17:51.417Z,58.40
2018-01-19T22:20:25.458Z,58.20
2018-01-19T22:22:59.439Z,58.30
2018-01-19T22:25:33.534Z,58.30
2018-01-19T22:28:07.706Z,58.20
2018-01-19T22:30:41.876Z,58.20
2018-01-19T22:33:15.830Z,58.50
2018-01-19T22:35:49.778Z,58.30
2018-01-19T22:38:23.834Z,58.30
2018-01-19T22:40:57.906Z,58.40
2018-01-19T22:43:31.914Z,58.50
2018-01-19T22:46:06.100Z,58.20
2018-01-19T22:48:40.796Z,58.40
2018-01-19T22:51:14.686Z,58.30
2018-01-19T22:53:48.645Z,58.40
2018-01-19T22:56:22.317Z,58.20
2018-01-19T22:58:56.402Z,58.30
2018-01-19T23:01:30.296Z,58.30
2018-01-19T23:04:04.706Z,58.40
2018-01-19T23:06:38.534Z,58.40
2018-01-19T23:09:12.672Z,58.70
2018-01-19T23:11:46.326Z,58.80
2018-01-19T23:14:20.282Z,59.10
2018-01-19T23:16:54.339Z,59.30
2018-01-19T23:19:28.493Z,59.20
2018-01-19T23:22:02.374Z,59.30
2018-01-19T23:24:36.481Z,59.50
2018-01-19T23:27:10.394Z,59.70
2018-01-19T23:29:44.426Z,59.70
2018-01-19T23:32:19.170Z,59.70
2018-01-19T23:34:53.351Z,59.60
2018-01-19T23:37:28.011Z,59.60
2018-01-19T23:40:02.110Z,59.50
2018-01-19T23:42:36.186Z,59.30
2018-01-19T23:45:10.230Z,59.40
2018-01-19T23:47:43.862Z,59.40
2018-01-19T23:50:17.914Z,59.40
2018-01-19T23:52:51.844Z,59.60
2018-01-19T23:55:26.438Z,59.60
2018-01-19T23:58:00.108Z,59.60
